Flight ASX308X

  • Submitted By: Krzysztof H. Blaszkow
  • Departure Airport: Bornholm Rønne (EKRN)
  • Arrival Airport: Gdansk im. Lecha Walesy (EPGD)
  • Aircraft: BE58 (SP-MVL)
  • Flight Time: 01.27.29
  • Date Submitted: 10/31/2016
  • Status: Accepted
Flight Details
Gross Revenue:
(5 load / € 55.00 per unit
€ 275.00
Fuel Cost:
(69.3996 fuel used @ 0.45 / unit)
€ 31.23

Additional Log Information:

View Log

[19:30] - Carenado BARON B58 METAL BLUE
[19:30] - Flight ASX308X is ready to depart EKRN with a final destination of EPGD.
[19:30] - Parking Brake Applied
[19:30] - Navigation Lights ON
[19:30] - Beacon Light ON
[19:30] - Instrument Lights ON
[19:30] - Recognition Lights ON
[19:30] - Wing Lights ON
[19:30] - Logo Lights ON
[19:30] - Cabin Lights ON
[19:30] - Boarding
[19:30] - ADF1 - 284.0
[19:30] - ADF2 - 240.0
[19:30] - NAV1 - 112.00
[19:30] - NAV2 - 110.60
[19:30] - COM1 - 122.80
[19:30] - COM2 - 127.90
[19:30] - Transponder - 2000
[19:31] - COM1 - 121.37
[19:33] - Transponder - 7306
[19:35] - Taxi Lights ON 3AGL
[19:35] - Engine 2 Started
[19:35] - Parking Brake Released
[19:35] - Engine 1 Started
[19:35] - Engine 2 Stopped
[19:35] - Engine 2 Started
[19:40] - Taxiing to Runway
[19:42] - Landing Lights ON 3AGL
[19:42] - Taxi Lights OFF 3AGL
[19:42] - Strobe Lights ON 3AGL
[19:44] - Taking Off with 5 passengers on board
[19:44] - Take off at 116kts, with a pitch of 4deg and 430lbs of fuel on board
[19:44] - Wind Heading 198 | Wind Speed 1kts | Temperature 9 deg C
[19:44] - METAR Departure: EKRN 311920Z AUTO 13003KT 3300NDV BR OVC003/// 09/08 Q1024

[19:44] - Gear up at 161AGL
[19:44] - Climbing to TOC
[19:46] - COM1 - 122.80
[19:48] - NAV1 - 114.20
[19:48] - AutoPilot Engaged at 5358AGL
[19:50] - Landing Lights OFF 6385AGL
[19:54] - TOC reached
[19:54] - Cruise started
[20:17] - NAV1 - 116.10
[20:19] - Landing Lights ON 8628AGL
[20:24] - TOD reached
[20:24] - Descending to destination
[20:36] - NAV1 - 110.30
[20:36] - Landing Shortly
[20:37] - AutoPilot Disengaged at 4636AGL
[20:38] - Gear down at 1106AGL
[20:38] - Flaps to position 1 at 1247ft and 126kts
[20:40] - Landed at -131fpm. With 283lbs of fuel onboard and a pitch angle of 5deg.
[20:40] - Wind Heading 272 | Wind Speed 3kts | Temperature 5 deg C
[20:40] - METAR Arrival: EPGD 312000Z VRB02KT 9999 -RA FEW014 SCT021 BKN030 06/04 Q1023

[20:40] - Flaps to position 0
[20:41] - Taxiing to Gate
[20:42] - Landing Lights OFF 0AGL
[20:42] - Taxi Lights ON 0AGL
[20:42] - Strobe Lights OFF 0AGL
[20:44] - Parking Brake Applied
[20:44] - Arrived safely at EPGD. We hope you enjoyed your flight!
[20:44] - Engine 1 Stopped
[20:44] - Engine 2 Stopped
[20:44] - Taxi Lights OFF 0AGL
[20:58] - Carenado BARON B58 METAL BLUE
[20:58] - MaxSim Rate: 1x
[20:58] - SiouxAcars ver: 1.0.1.2

Route Map